Time;durP1;ratioP1;P1;durP2;ratioP2;P2;SDS_P1;SDS_P2;PMS_P1;PMS_P2;Temp;Humidity;BMP_temperature;BMP_pressure;BME280_temperature;BME280_humidity;BME280_pressure;Samples;Min_cycle;Max_cycle;Signal;HPM_P1;HPM_P2
2023/02/15 00:01:44;;;;;;;38.70;21.15;;;6.80;95.50;;;;;;5027463;28;20030;-70
2023/02/15 00:04:13;;;;;;;40.25;22.35;;;6.90;95.60;;;;;;5026877;28;20515;-71
2023/02/15 00:06:39;;;;;;;37.60;21.52;;;6.80;95.70;;;;;;5027045;28;20032;-71
2023/02/15 00:09:05;;;;;;;40.75;22.92;;;6.70;95.60;;;;;;5027157;28;20053;-70
2023/02/15 00:11:40;;;;;;;38.37;21.97;;;6.50;96.00;;;;;;5030091;28;20229;-70
2023/02/15 00:14:07;;;;;;;37.72;20.05;;;6.50;96.20;;;;;;5030858;28;20072;-71
2023/02/15 00:16:33;;;;;;;40.08;20.83;;;6.40;96.80;;;;;;5031221;28;20033;-71
2023/02/15 00:19:01;;;;;;;39.53;20.40;;;6.30;97.70;;;;;;5046396;28;20409;-71
2023/02/15 00:21:29;;;;;;;34.25;20.40;;;6.20;97.50;;;;;;5031327;28;20108;-71
2023/02/15 00:23:56;;;;;;;36.15;20.10;;;6.20;97.30;;;;;;5021702;28;20405;-71
2023/02/15 00:26:22;;;;;;;39.22;20.60;;;6.30;97.20;;;;;;5031161;28;20048;-71
2023/02/15 00:28:47;;;;;;;38.00;19.47;;;6.20;97.60;;;;;;5031057;28;20041;-71
2023/02/15 00:31:13;;;;;;;41.63;20.70;;;6.10;97.60;;;;;;5030559;28;20449;-70
2023/02/15 00:33:39;;;;;;;37.70;19.53;;;5.90;98.00;;;;;;5030746;28;20439;-70
2023/02/15 00:36:07;;;;;;;31.17;18.58;;;5.90;98.20;;;;;;5030575;28;20033;-71
2023/02/15 00:38:33;;;;;;;36.45;20.70;;;5.80;98.40;;;;;;5030522;28;20498;-71
2023/02/15 00:41:00;;;;;;;42.28;22.13;;;5.60;99.10;;;;;;5030229;28;20033;-70
2023/02/15 00:43:27;;;;;;;45.63;22.80;;;5.80;98.90;;;;;;5030054;28;20047;-71
2023/02/15 00:45:53;;;;;;;38.22;21.65;;;5.70;98.80;;;;;;5045434;28;20025;-71
2023/02/15 00:48:20;;;;;;;40.37;23.10;;;5.60;99.10;;;;;;5029667;28;20107;-71
2023/02/15 00:50:49;;;;;;;;;;;5.40;99.10;;;;;;5030752;28;20041;-70
2023/02/15 00:53:15;;;;;;;44.90;23.67;;;5.50;99.10;;;;;;5025884;28;20004;-71
2023/02/15 00:55:40;;;;;;;40.35;22.42;;;5.50;98.80;;;;;;5027812;28;20237;-71
2023/02/15 00:58:07;;;;;;;42.87;22.43;;;5.50;98.80;;;;;;5030507;28;20409;-71
2023/02/15 01:00:35;;;;;;;43.17;22.98;;;5.50;98.90;;;;;;5029642;28;20522;-70
2023/02/15 01:03:01;;;;;;;39.55;21.95;;;5.50;99.10;;;;;;5030309;28;20523;-70
2023/02/15 01:05:26;;;;;;;41.38;23.48;;;5.40;99.20;;;;;;5029927;28;20037;-71
2023/02/15 01:07:52;;;;;;;38.67;22.07;;;5.20;99.70;;;;;;5030051;28;20029;-71
2023/02/15 01:10:18;;;;;;;43.03;21.77;;;5.00;99.90;;;;;;5029774;28;20808;-71
2023/02/15 01:12:43;;;;;;;40.13;21.87;;;4.90;99.90;;;;;;5029380;28;20064;-70
2023/02/15 01:15:09;;;;;;;40.47;21.87;;;5.10;99.90;;;;;;5028965;28;20286;-70
2023/02/15 01:17:35;;;;;;;47.33;23.40;;;5.10;99.90;;;;;;5029508;28;20033;-69
2023/02/15 01:20:00;;;;;;;45.87;22.80;;;5.00;99.90;;;;;;5029590;28;20026;-71
2023/02/15 01:22:26;;;;;;;43.63;22.87;;;5.10;99.90;;;;;;5029631;28;20103;-70
2023/02/15 01:24:52;;;;;;;41.73;22.13;;;5.10;99.90;;;;;;5029763;28;20389;-70
2023/02/15 01:27:17;;;;;;;53.07;24.23;;;5.10;99.90;;;;;;5029550;28;20060;-70
2023/02/15 01:29:43;;;;;;;44.10;22.13;;;5.10;99.90;;;;;;5029302;28;20032;-70
2023/02/15 01:32:09;;;;;;;51.10;23.60;;;5.00;99.90;;;;;;5029134;28;20057;-71
2023/02/15 01:34:35;;;;;;;43.53;22.67;;;5.00;99.90;;;;;;5029797;28;20453;-70
2023/02/15 01:37:00;;;;;;;42.87;22.10;;;5.00;99.90;;;;;;5029523;28;20116;-70
2023/02/15 01:39:26;;;;;;;40.43;22.20;;;4.90;99.90;;;;;;5041837;28;20084;-70
2023/02/15 01:41:52;;;;;;;42.93;21.97;;;4.90;99.90;;;;;;5012499;28;20040;-70
2023/02/15 01:44:45;;;;;;;52.35;22.55;;;4.80;99.90;;;;;;5029661;28;20056;-70
2023/02/15 01:47:15;;;;;;;49.75;22.55;;;4.80;99.90;;;;;;5027929;28;20037;-71
2023/02/15 01:49:44;;;;;;;40.17;21.48;;;4.80;99.90;;;;;;5029621;28;20033;-70
2023/02/15 01:52:12;;;;;;;42.92;23.38;;;4.80;99.90;;;;;;5029237;28;20045;-70
2023/02/15 01:54:40;;;;;;;46.10;23.58;;;4.90;99.90;;;;;;5028663;28;20079;-70
2023/02/15 01:57:12;;;;;;;45.13;22.02;;;4.90;99.90;;;;;;5029062;28;20053;-70
2023/02/15 01:59:41;;;;;;;49.08;24.17;;;4.80;99.90;;;;;;5029451;28;20025;-70
2023/02/15 02:02:09;;;;;;;47.25;23.05;;;4.90;99.90;;;;;;5028904;28;20032;-70
2023/02/15 02:04:47;;;;;;;50.60;23.60;;;4.80;99.90;;;;;;5029110;28;20092;-70
2023/02/15 02:07:15;;;;;;;44.70;24.00;;;4.90;99.90;;;;;;5028682;28;20124;-70
2023/02/15 02:09:41;;;;;;;45.45;23.60;;;4.80;99.90;;;;;;5027662;28;20029;-70
2023/02/15 02:12:07;;;;;;;40.67;21.50;;;4.70;99.90;;;;;;5028165;28;20376;-70
2023/02/15 02:14:33;;;;;;;;;;;4.70;99.90;;;;;;5028115;28;20068;-70
2023/02/15 02:17:22;;;;;;;41.75;21.98;;;4.80;99.90;;;;;;5028548;28;19952;-69
2023/02/15 02:20:15;;;;;;;49.15;22.90;;;4.70;99.90;;;;;;5028929;28;20386;-70
2023/02/15 02:23:08;;;;;;;48.55;25.63;;;4.60;99.90;;;;;;5028486;28;20033;-70
2023/02/15 02:25:50;;;;;;;45.33;22.80;;;4.60;99.90;;;;;;5029009;28;20021;-70
2023/02/15 02:28:44;;;;;;;47.58;23.48;;;4.50;99.90;;;;;;5027870;28;20041;-70
2023/02/15 02:31:24;;;;;;;43.70;23.58;;;4.50;99.90;;;;;;5028614;28;20040;-70
2023/02/15 02:34:28;;;;;;;46.00;23.30;;;4.50;99.90;;;;;;5027965;28;20048;-70
2023/02/15 02:37:18;;;;;;;50.08;24.20;;;4.30;99.90;;;;;;5026832;28;20099;-70
2023/02/15 02:39:55;;;;;;;54.67;24.60;;;4.40;99.90;;;;;;5028423;28;20017;-70
2023/02/15 02:42:20;;;;;;;;;;;4.40;99.90;;;;;;5028417;28;20045;-70
2023/02/15 02:44:59;;;;;;;50.53;23.42;;;4.50;99.90;;;;;;5027955;28;19913;-70
2023/02/15 02:47:48;;;;;;;51.90;24.33;;;4.50;99.90;;;;;;5027705;28;20091;-70
2023/02/15 02:50:21;;;;;;;46.67;23.63;;;4.50;99.90;;;;;;5026758;28;20086;-70
2023/02/15 02:52:50;;;;;;;45.78;24.98;;;4.50;99.90;;;;;;5028269;28;20057;-70
2023/02/15 02:55:33;;;;;;;50.22;25.33;;;4.40;99.90;;;;;;5028347;28;20025;-70
2023/02/15 02:58:20;;;;;;;54.45;25.30;;;4.50;99.90;;;;;;5028159;28;20030;-70
2023/02/15 03:00:56;;;;;;;53.43;27.60;;;4.50;99.90;;;;;;5028232;28;20029;-70
2023/02/15 03:03:32;;;;;;;48.83;25.77;;;4.60;99.90;;;;;;5027990;28;20041;-70
2023/02/15 03:06:02;;;;;;;51.37;27.30;;;4.60;99.90;;;;;;5028715;28;20922;-70
2023/02/15 03:08:33;;;;;;;47.50;25.50;;;4.60;99.90;;;;;;5026719;28;20104;-71
2023/02/15 03:11:01;;;;;;;49.83;24.73;;;4.70;99.90;;;;;;5026167;28;20513;-70
2023/02/15 03:13:28;;;;;;;45.05;25.13;;;4.70;99.90;;;;;;5038695;28;20535;-70
2023/02/15 03:18:52;;;;;;;47.72;25.85;;;4.60;99.90;;;;;;5030353;28;20044;-69
2023/02/15 03:21:32;;;;;;;52.50;24.40;;;4.70;99.90;;;;;;5033098;28;20124;-70
2023/02/15 03:24:05;;;;;;;51.22;24.83;;;4.60;99.90;;;;;;5027798;28;20083;-70
2023/02/15 03:26:33;;;;;;;49.38;26.75;;;4.60;99.90;;;;;;5043034;28;20085;-69
2023/02/15 03:29:00;;;;;;;48.60;25.58;;;4.60;99.90;;;;;;5043623;28;20033;-70
2023/02/15 03:31:29;;;;;;;48.47;25.73;;;4.60;99.90;;;;;;5042201;28;20037;-71
2023/02/15 03:34:04;;;;;;;55.50;27.10;;;4.60;99.90;;;;;;5040608;28;20029;-71
2023/02/15 03:36:50;;;;;;;49.85;27.42;;;4.60;99.90;;;;;;5045455;28;20480;-71
2023/02/15 03:39:28;;;;;;;54.88;26.85;;;4.50;99.90;;;;;;5039656;28;20524;-71
2023/02/15 03:42:05;;;;;;;63.92;27.85;;;4.50;99.90;;;;;;5046302;28;20029;-70
2023/02/15 03:44:39;;;;;;;53.13;25.90;;;4.40;99.90;;;;;;5041574;28;20037;-69
2023/02/15 03:47:12;;;;;;;56.72;26.77;;;4.50;99.90;;;;;;5044934;28;20878;-70
2023/02/15 03:49:57;;;;;;;47.35;25.98;;;4.50;99.90;;;;;;5008599;28;20084;-70
2023/02/15 03:52:26;;;;;;;59.33;28.35;;;4.60;99.90;;;;;;5036689;28;20045;-70
2023/02/15 03:54:53;;;;;;;50.80;28.27;;;4.70;99.90;;;;;;5045965;28;20492;-70
2023/02/15 04:03:26;;;;;;;59.05;29.48;;;5.00;99.90;;;;;;5033589;28;20056;-70
2023/02/15 04:05:51;;;;;;;61.28;30.20;;;5.00;99.90;;;;;;5041365;28;20025;-70
2023/02/15 04:08:17;;;;;;;56.10;27.43;;;5.00;99.90;;;;;;5032415;28;20040;-70
2023/02/15 04:10:51;;;;;;;56.67;30.43;;;4.90;99.90;;;;;;5045522;28;20485;-70
2023/02/15 04:13:18;;;;;;;56.67;29.42;;;4.90;99.90;;;;;;5039177;28;20060;-70
2023/02/15 04:26:41;;;;;;;56.30;28.30;;;4.60;99.90;;;;;;5043851;28;20856;-70
2023/02/15 04:29:06;;;;;;;51.27;28.57;;;4.60;99.90;;;;;;5040925;28;20112;-71
2023/02/15 04:31:32;;;;;;;55.63;30.40;;;4.60;99.90;;;;;;5045159;28;20051;-70
2023/02/15 04:33:57;;;;;;;56.60;30.07;;;4.60;99.90;;;;;;5035676;28;20057;-70
2023/02/15 04:36:23;;;;;;;53.90;28.03;;;4.70;99.90;;;;;;5044765;28;20047;-70
2023/02/15 04:38:49;;;;;;;55.50;28.73;;;4.60;99.90;;;;;;5044881;28;20739;-70
2023/02/15 04:41:14;;;;;;;58.23;28.57;;;4.60;99.90;;;;;;5044366;28;20033;-70
2023/02/15 04:43:40;;;;;;;57.50;28.27;;;4.60;99.90;;;;;;5036163;28;20063;-69
2023/02/15 04:46:05;;;;;;;59.87;29.00;;;4.50;99.90;;;;;;5045898;28;20032;-70
2023/02/15 04:48:31;;;;;;;57.07;28.10;;;4.50;99.90;;;;;;5044850;28;20095;-70
2023/02/15 04:50:56;;;;;;;56.80;29.93;;;4.60;99.90;;;;;;5045999;28;20044;-70
2023/02/15 04:53:22;;;;;;;58.37;30.67;;;4.50;99.90;;;;;;5041944;28;20112;-71
2023/02/15 04:55:48;;;;;;;62.87;30.83;;;4.50;99.90;;;;;;5043707;28;20500;-70
2023/02/15 04:58:13;;;;;;;54.10;29.03;;;4.60;99.90;;;;;;5047509;28;20542;-70
2023/02/15 05:00:39;;;;;;;58.10;30.13;;;4.50;99.90;;;;;;5049315;28;20048;-70
2023/02/15 05:03:04;;;;;;;57.20;30.53;;;4.50;99.90;;;;;;5045206;28;20404;-71
2023/02/15 05:05:30;;;;;;;54.83;29.30;;;4.50;99.90;;;;;;5044690;28;20512;-70
2023/02/15 05:07:56;;;;;;;51.53;28.23;;;4.30;99.90;;;;;;5042916;28;20060;-71
2023/02/15 05:10:21;;;;;;;60.77;30.23;;;4.30;99.90;;;;;;5048824;28;20378;-70
2023/02/15 05:12:47;;;;;;;52.00;27.73;;;4.30;99.90;;;;;;5042197;28;20739;-71
2023/02/15 05:15:13;;;;;;;56.13;28.50;;;4.20;99.90;;;;;;5049107;28;20029;-70
2023/02/15 05:17:38;;;;;;;55.67;28.93;;;4.00;99.90;;;;;;5033260;28;21094;-71
2023/02/15 05:20:04;;;;;;;58.17;30.23;;;4.00;99.90;;;;;;5049459;28;20017;-70
2023/02/15 05:22:30;;;;;;;63.85;31.25;;;3.80;99.90;;;;;;5046212;28;20045;-70
2023/02/15 05:30:24;;;;;;;64.18;28.85;;;3.60;99.90;;;;;;5047638;28;20044;-71
2023/02/15 05:32:49;;;;;;;62.40;29.40;;;3.60;99.90;;;;;;5047732;28;20421;-70
2023/02/15 05:35:16;;;;;;;62.00;30.13;;;3.50;99.90;;;;;;5038691;28;20022;-71
2023/02/15 05:37:41;;;;;;;63.42;29.48;;;3.40;99.90;;;;;;5044571;28;20025;-71
2023/02/15 05:40:08;;;;;;;55.70;29.17;;;3.40;99.90;;;;;;5048296;28;20040;-70
2023/02/15 05:42:34;;;;;;;62.55;28.55;;;3.30;99.90;;;;;;5042753;28;20050;-70
2023/02/15 05:44:59;;;;;;;58.93;29.83;;;3.20;99.90;;;;;;5038636;28;20642;-70
2023/02/15 05:47:25;;;;;;;63.67;29.70;;;3.20;99.90;;;;;;5041005;28;20287;-70
2023/02/15 05:49:50;;;;;;;60.77;32.13;;;3.20;99.90;;;;;;5044687;28;20586;-70
2023/02/15 05:52:16;;;;;;;62.73;30.03;;;3.20;99.90;;;;;;5047416;28;20432;-70
2023/02/15 05:54:42;;;;;;;61.60;29.57;;;3.20;99.90;;;;;;5045898;28;20029;-69
2023/02/15 05:57:07;;;;;;;63.20;30.60;;;3.00;99.90;;;;;;5046975;28;20115;-69
2023/02/15 05:59:33;;;;;;;55.80;30.23;;;3.10;99.90;;;;;;5030921;28;20108;-70
2023/02/15 06:01:58;;;;;;;60.10;31.70;;;3.10;99.90;;;;;;5045631;28;20295;-68
2023/02/15 06:04:24;;;;;;;74.37;33.73;;;3.20;99.90;;;;;;5032811;28;20053;-69
2023/02/15 06:06:50;;;;;;;67.67;33.97;;;3.20;99.90;;;;;;5033568;28;20394;-69
2023/02/15 06:09:18;;;;;;;70.97;33.57;;;3.40;99.90;;;;;;5039139;28;20337;-71
2023/02/15 06:11:44;;;;;;;64.95;31.98;;;3.40;99.90;;;;;;5043884;28;20119;-71
2023/02/15 06:14:10;;;;;;;63.13;30.35;;;3.40;99.90;;;;;;5035544;28;20075;-71
2023/02/15 06:16:36;;;;;;;65.77;30.70;;;3.40;99.90;;;;;;5042071;28;20033;-70
2023/02/15 06:19:03;;;;;;;63.28;31.75;;;3.50;99.90;;;;;;5042590;28;20283;-74
2023/02/15 06:21:30;;;;;;;66.00;31.42;;;3.60;99.90;;;;;;5047178;28;20090;-71
2023/02/15 06:23:56;;;;;;;68.20;34.53;;;3.60;99.90;;;;;;5045792;28;20032;-72
2023/02/15 06:26:21;;;;;;;59.00;32.38;;;3.70;99.90;;;;;;5047617;28;20041;-72
2023/02/15 06:28:47;;;;;;;68.55;30.92;;;3.60;99.90;;;;;;5042550;28;20037;-70
2023/02/15 06:31:13;;;;;;;69.87;33.23;;;3.70;99.90;;;;;;5027120;28;20496;-74
2023/02/15 06:33:38;;;;;;;57.17;31.67;;;3.60;99.90;;;;;;5041537;28;20036;-71
2023/02/15 06:36:04;;;;;;;67.00;32.50;;;3.40;99.90;;;;;;5043377;28;20025;-70
2023/02/15 06:38:30;;;;;;;65.38;32.42;;;3.40;99.90;;;;;;5035561;28;20468;-68
2023/02/15 06:40:56;;;;;;;63.03;32.70;;;3.40;99.90;;;;;;5041259;28;20596;-68
2023/02/15 06:43:21;;;;;;;66.27;32.90;;;3.40;99.90;;;;;;5040660;28;20049;-68
2023/02/15 06:45:47;;;;;;;64.60;31.27;;;3.50;99.90;;;;;;5042376;28;20029;-68
2023/02/15 06:48:13;;;;;;;59.17;32.53;;;3.40;99.90;;;;;;5037996;28;20493;-69
2023/02/15 06:50:39;;;;;;;63.25;31.05;;;3.30;99.90;;;;;;5038137;28;20029;-68
2023/02/15 06:53:05;;;;;;;65.70;32.65;;;3.30;99.90;;;;;;5026917;28;20056;-68
2023/02/15 06:55:30;;;;;;;67.03;32.80;;;3.30;99.90;;;;;;5033489;28;20502;-69
2023/02/15 06:57:56;;;;;;;64.37;33.33;;;3.50;99.90;;;;;;5031054;28;20045;-68
2023/02/15 07:00:23;;;;;;;62.63;32.27;;;3.60;99.90;;;;;;5043052;28;20455;-68
2023/02/15 07:02:57;;;;;;;64.05;31.60;;;3.60;99.90;;;;;;5038606;28;20541;-68
2023/02/15 07:05:23;;;;;;;61.92;31.10;;;3.70;99.90;;;;;;5031764;28;20086;-69
2023/02/15 07:07:49;;;;;;;67.45;31.80;;;3.60;99.90;;;;;;5050673;28;20037;-68
2023/02/15 07:10:15;;;;;;;57.88;31.42;;;3.60;99.90;;;;;;5042517;28;20037;-68
2023/02/15 07:12:44;;;;;;;57.25;31.63;;;3.60;99.90;;;;;;5028903;28;20041;-69
2023/02/15 07:15:12;;;;;;;61.20;32.25;;;3.60;99.90;;;;;;5037566;28;20036;-69
2023/02/15 07:17:38;;;;;;;64.88;32.75;;;3.60;99.90;;;;;;5040227;28;20520;-69
2023/02/15 07:20:10;;;;;;;65.22;31.23;;;3.80;99.90;;;;;;5033338;28;20116;-69
2023/02/15 07:22:36;;;;;;;64.53;33.25;;;3.80;99.90;;;;;;5028147;28;20029;-68
2023/02/15 07:25:04;;;;;;;63.13;34.03;;;3.90;99.90;;;;;;5028199;28;20036;-69
2023/02/15 07:27:30;;;;;;;61.25;32.38;;;4.00;99.90;;;;;;5026992;28;20405;-68
2023/02/15 07:29:56;;;;;;;;;;;4.10;99.90;;;;;;5036332;28;20028;-68
2023/02/15 07:32:21;;;;;;;67.35;33.03;;;4.10;99.90;;;;;;5040992;28;19925;-68
2023/02/15 07:34:47;;;;;;;62.40;31.97;;;4.20;99.90;;;;;;5027842;28;20485;-68
2023/02/15 07:37:13;;;;;;;66.63;34.37;;;4.30;99.90;;;;;;5036086;28;20053;-68
2023/02/15 07:39:38;;;;;;;62.50;32.80;;;4.30;99.90;;;;;;5037204;28;20052;-68
2023/02/15 07:42:04;;;;;;;69.63;32.43;;;4.30;99.90;;;;;;5037014;28;20036;-69
2023/02/15 07:44:29;;;;;;;72.57;33.30;;;4.40;99.90;;;;;;5028984;28;20100;-69
2023/02/15 07:46:55;;;;;;;67.27;32.53;;;4.50;99.90;;;;;;5046425;28;20078;-69
2023/02/15 07:49:20;;;;;;;68.27;32.03;;;4.50;99.90;;;;;;5046750;28;20075;-69
2023/02/15 07:51:46;;;;;;;60.30;30.57;;;4.50;99.90;;;;;;5040797;28;20045;-68
2023/02/15 07:54:12;;;;;;;67.93;32.00;;;4.60;99.90;;;;;;5039251;28;20120;-70
2023/02/15 07:56:37;;;;;;;62.27;32.47;;;4.60;99.90;;;;;;5043883;28;20614;-70
2023/02/15 07:59:04;;;;;;;59.57;30.60;;;4.80;99.90;;;;;;5046213;28;20033;-69
2023/02/15 08:01:35;;;;;;;64.88;30.45;;;5.00;99.90;;;;;;5029967;28;20478;-69
2023/02/15 08:04:01;;;;;;;56.92;29.20;;;5.30;99.90;;;;;;5036955;28;20021;-68
2023/02/15 08:06:29;;;;;;;56.25;30.38;;;6.80;99.90;;;;;;5038657;28;20551;-70
2023/02/15 08:08:55;;;;;;;63.20;31.02;;;8.70;98.80;;;;;;5046215;28;20044;-69
2023/02/15 08:11:28;;;;;;;63.07;30.17;;;10.10;96.20;;;;;;5025514;28;20038;-68
2023/02/15 08:14:07;;;;;;;57.38;28.58;;;11.10;93.40;;;;;;5027873;28;20284;-69
2023/02/15 08:16:37;;;;;;;54.28;29.05;;;10.30;92.60;;;;;;5025217;28;20037;-69
2023/02/15 08:19:21;;;;;;;50.22;27.40;;;9.80;92.90;;;;;;5041147;28;20028;-70
2023/02/15 08:21:52;;;;;;;64.32;28.95;;;10.50;92.80;;;;;;5039356;28;20061;-69
2023/02/15 08:24:20;;;;;;;70.55;29.02;;;9.90;93.70;;;;;;5028968;28;20094;-70
2023/02/15 08:26:47;;;;;;;52.92;27.85;;;10.30;93.80;;;;;;5032802;28;20513;-70
2023/02/15 08:29:15;;;;;;;52.92;28.58;;;11.00;94.00;;;;;;5034084;28;20033;-68
2023/02/15 08:31:41;;;;;;;54.38;28.52;;;9.80;94.20;;;;;;5029970;28;20025;-68
2023/02/15 08:34:08;;;;;;;53.55;28.15;;;9.50;96.20;;;;;;5047347;28;20449;-67
2023/02/15 08:36:34;;;;;;;62.90;30.60;;;9.20;96.70;;;;;;5035750;28;20074;-68
2023/02/15 08:39:03;;;;;;;62.08;28.20;;;8.90;97.60;;;;;;5047621;28;20439;-68
2023/02/15 08:41:30;;;;;;;53.90;27.98;;;8.70;98.50;;;;;;5043820;28;20037;-69
2023/02/15 08:44:01;;;;;;;48.83;27.25;;;8.80;98.80;;;;;;5044187;28;20377;-67
2023/02/15 08:46:30;;;;;;;49.88;27.95;;;9.20;98.80;;;;;;5036687;28;20112;-69
2023/02/15 08:48:56;;;;;;;49.25;27.05;;;10.00;97.40;;;;;;5049197;28;20021;-68
2023/02/15 08:51:25;;;;;;;48.95;28.13;;;11.40;96.00;;;;;;5047366;28;20044;-67
2023/02/15 08:53:56;;;;;;;47.40;26.38;;;12.40;93.80;;;;;;5043708;28;20067;-69
2023/02/15 08:56:25;;;;;;;49.55;25.70;;;13.20;91.60;;;;;;5041275;28;20025;-68
2023/02/15 08:58:52;;;;;;;48.42;25.83;;;13.30;90.20;;;;;;5048216;28;20036;-68
2023/02/15 09:01:21;;;;;;;43.13;25.05;;;13.70;89.20;;;;;;5045573;28;20066;-69
2023/02/15 09:03:49;;;;;;;58.22;25.70;;;13.20;87.90;;;;;;5030486;28;20045;-69
2023/02/15 09:06:16;;;;;;;42.28;23.88;;;13.80;90.20;;;;;;5037061;28;20045;-70
2023/02/15 09:08:42;;;;;;;49.78;26.48;;;15.30;83.10;;;;;;5037533;28;20029;-69
2023/02/15 09:11:23;;;;;;;44.58;25.17;;;15.80;78.90;;;;;;5039542;28;20080;-70
2023/02/15 09:14:14;;;;;;;53.15;26.52;;;13.70;83.70;;;;;;5043430;28;20041;-68
2023/02/15 09:16:44;;;;;;;46.30;24.83;;;11.90;90.20;;;;;;5034679;28;20500;-69
2023/02/15 09:19:10;;;;;;;47.03;25.20;;;11.80;91.40;;;;;;5033328;28;20052;-70
2023/02/15 09:21:37;;;;;;;46.13;24.23;;;11.80;91.40;;;;;;5027934;28;20064;-67
2023/02/15 09:24:12;;;;;;;40.67;23.35;;;11.40;92.30;;;;;;5034629;28;20025;-68
2023/02/15 09:26:40;;;;;;;40.03;21.95;;;11.90;92.10;;;;;;5033460;28;20524;-69
2023/02/15 09:29:06;;;;;;;37.70;21.95;;;11.70;92.30;;;;;;5042617;28;20405;-71
2023/02/15 09:31:41;;;;;;;41.88;22.90;;;12.10;91.90;;;;;;5036075;28;20037;-69
2023/02/15 09:34:07;;;;;;;47.83;22.73;;;14.20;88.90;;;;;;5027573;28;20100;-69
2023/02/15 09:36:36;;;;;;;38.85;21.35;;;15.20;82.70;;;;;;5029340;28;20881;-69
2023/02/15 09:39:12;;;;;;;43.65;22.08;;;17.00;76.10;;;;;;5031828;28;20025;-69
2023/02/15 09:41:47;;;;;;;39.45;22.30;;;16.90;75.10;;;;;;5051421;28;20573;-69
2023/02/15 09:44:54;;;;;;;37.20;22.13;;;16.80;73.70;;;;;;5037100;28;20037;-69
2023/02/15 09:47:38;;;;;;;34.78;21.90;;;16.90;72.30;;;;;;5042037;28;20041;-68
2023/02/15 09:50:21;;;;;;;33.50;21.20;;;17.90;71.20;;;;;;5043276;28;20040;-69
2023/02/15 09:53:11;;;;;;;42.42;21.75;;;16.20;72.80;;;;;;5040802;28;20416;-69
2023/02/15 09:56:00;;;;;;;40.90;19.20;;;15.30;74.80;;;;;;5032957;28;20021;-69
2023/02/15 09:58:55;;;;;;;30.55;18.30;;;16.20;76.10;;;;;;5029004;28;20049;-71
2023/02/15 10:01:20;;;;;;;31.80;18.48;;;17.20;71.50;;;;;;5040203;28;20774;-68
2023/02/15 10:03:59;;;;;;;29.73;17.47;;;18.20;66.50;;;;;;5047831;28;20025;-69
2023/02/15 10:07:01;;;;;;;38.22;18.00;;;18.80;66.10;;;;;;5045707;28;20056;-69
2023/02/15 10:09:46;;;;;;;45.90;20.05;;;18.30;63.30;;;;;;5039837;28;20083;-69
2023/02/15 10:12:20;;;;;;;34.63;18.90;;;17.70;65.00;;;;;;5023813;28;20393;-70
2023/02/15 10:15:15;;;;;;;38.55;19.17;;;17.50;63.20;;;;;;5040150;28;20345;-68
2023/02/15 10:17:50;;;;;;;27.92;16.35;;;16.80;67.30;;;;;;5035768;28;20057;-70
2023/02/15 10:20:25;;;;;;;34.67;17.73;;;15.60;71.50;;;;;;5035618;28;20044;-70
2023/02/15 10:23:23;;;;;;;31.02;15.73;;;15.40;71.80;;;;;;5043371;28;20247;-69
2023/02/15 10:26:11;;;;;;;29.60;16.20;;;16.80;69.80;;;;;;5036526;28;20028;-68
2023/02/15 10:28:51;;;;;;;28.55;16.00;;;16.60;68.80;;;;;;5033584;28;20600;-70
2023/02/15 10:31:25;;;;;;;35.65;15.82;;;17.90;62.10;;;;;;5031473;28;20021;-70
2023/02/15 10:34:22;;;;;;;30.55;15.65;;;17.60;64.40;;;;;;5040109;28;20520;-72
2023/02/15 10:37:05;;;;;;;28.92;15.98;;;17.50;64.00;;;;;;5028864;28;20492;-71
2023/02/15 10:39:46;;;;;;;27.67;15.27;;;17.30;60.50;;;;;;5038615;28;20098;-71
2023/02/15 10:42:47;;;;;;;25.85;14.45;;;15.80;65.40;;;;;;5033971;28;20033;-71
2023/02/15 10:45:43;;;;;;;25.42;14.20;;;15.00;68.30;;;;;;5038563;28;20044;-72
2023/02/15 10:48:24;;;;;;;26.40;14.48;;;14.70;71.30;;;;;;5043992;28;20040;-70
2023/02/15 10:50:57;;;;;;;25.42;14.02;;;14.40;74.10;;;;;;5038701;28;20033;-70
2023/02/15 10:53:34;;;;;;;24.90;14.18;;;14.30;75.60;;;;;;5035277;28;20041;-70
2023/02/15 10:56:21;;;;;;;24.33;14.10;;;14.10;74.00;;;;;;5045119;28;20405;-69
2023/02/15 10:59:10;;;;;;;22.08;13.00;;;13.90;76.00;;;;;;5028604;28;20127;-67
2023/02/15 11:01:39;;;;;;;26.88;14.13;;;13.80;76.90;;;;;;5031142;28;20576;-68
2023/02/15 11:04:13;;;;;;;32.72;13.73;;;13.80;78.50;;;;;;5041521;28;20037;-67
2023/02/15 11:06:51;;;;;;;28.20;12.68;;;13.80;77.00;;;;;;5049247;28;20075;-67
2023/02/15 11:09:18;;;;;;;22.10;11.20;;;13.80;75.70;;;;;;5027448;28;20033;-73
2023/02/15 11:11:47;;;;;;;13.80;9.15;;;13.90;74.90;;;;;;5031142;28;20404;-69
2023/02/15 11:14:23;;;;;;;10.52;6.90;;;13.80;72.10;;;;;;5041797;28;20090;-69
2023/02/15 11:16:56;;;;;;;15.93;6.57;;;13.90;70.20;;;;;;5046333;28;20104;-69
2023/02/15 11:19:51;;;;;;;10.63;6.20;;;13.80;67.50;;;;;;5041419;28;20545;-69
2023/02/15 11:22:18;;;;;;;12.23;6.30;;;13.80;67.60;;;;;;5004949;28;20059;-69
2023/02/15 11:24:46;;;;;;;13.63;7.03;;;13.70;68.40;;;;;;5043969;28;20024;-70
2023/02/15 11:27:34;;;;;;;11.82;6.88;;;13.70;69.60;;;;;;5044112;28;20041;-68
2023/02/15 11:30:09;;;;;;;17.80;7.60;;;13.70;68.50;;;;;;5042688;28;20024;-71
2023/02/15 11:32:40;;;;;;;14.05;7.43;;;13.60;68.30;;;;;;5041143;28;20076;-72
2023/02/15 11:35:09;;;;;;;14.75;7.28;;;13.70;69.90;;;;;;5044865;28;20493;-68
2023/02/15 11:37:37;;;;;;;11.65;6.78;;;13.70;69.60;;;;;;5036358;28;20033;-67
2023/02/15 11:40:15;;;;;;;11.20;6.95;;;13.70;68.40;;;;;;5040472;28;20025;-66
2023/02/15 11:42:41;;;;;;;13.27;7.65;;;13.70;68.70;;;;;;5039581;28;20033;-66
2023/02/15 11:45:25;;;;;;;12.93;8.27;;;13.70;68.80;;;;;;5045958;28;20028;-67
2023/02/15 11:47:50;;;;;;;12.30;7.55;;;13.50;67.50;;;;;;5033462;28;20032;-68
2023/02/15 11:50:22;;;;;;;14.97;8.67;;;13.50;69.40;;;;;;5045967;28;20382;-68
2023/02/15 11:52:54;;;;;;;13.93;8.10;;;13.60;70.60;;;;;;5040112;28;20045;-67
2023/02/15 11:55:22;;;;;;;19.23;8.55;;;13.70;68.20;;;;;;5043375;28;20041;-71
2023/02/15 11:58:15;;;;;;;17.27;8.60;;;13.70;68.60;;;;;;5039319;28;20033;-67
2023/02/15 12:00:52;;;;;;;20.30;8.82;;;13.70;69.80;;;;;;5037210;28;20068;-69
2023/02/15 12:03:48;;;;;;;13.10;8.27;;;13.70;71.10;;;;;;5043658;28;20033;-68
2023/02/15 12:06:23;;;;;;;17.58;9.55;;;13.80;70.40;;;;;;5040103;28;20489;-68
2023/02/15 12:09:12;;;;;;;13.65;8.40;;;14.00;69.70;;;;;;5045448;28;20083;-67
2023/02/15 12:11:40;;;;;;;14.38;8.35;;;13.90;68.40;;;;;;5000233;28;20060;-70
2023/02/15 12:14:11;;;;;;;15.68;8.68;;;13.90;68.90;;;;;;5039677;28;20524;-68
2023/02/15 12:16:47;;;;;;;20.50;8.32;;;13.90;69.80;;;;;;5026252;28;20057;-69
2023/02/15 12:19:26;;;;;;;16.58;9.15;;;14.00;71.80;;;;;;5034926;28;20761;-68
2023/02/15 12:21:53;;;;;;;16.08;8.40;;;14.10;70.60;;;;;;5031186;28;20084;-71
2023/02/15 12:24:27;;;;;;;12.52;8.35;;;14.20;69.40;;;;;;5038504;28;20025;-69
2023/02/15 12:27:15;;;;;;;14.60;8.68;;;14.20;69.20;;;;;;5041206;28;20090;-69
2023/02/15 12:29:59;;;;;;;13.10;8.65;;;14.20;70.40;;;;;;5032910;28;20437;-69
2023/02/15 12:32:29;;;;;;;16.48;8.90;;;14.30;70.40;;;;;;5033000;28;20091;-69
2023/02/15 12:35:18;;;;;;;15.13;8.48;;;14.10;69.40;;;;;;5020592;28;20018;-69
2023/02/15 12:38:13;;;;;;;13.20;8.15;;;14.20;69.50;;;;;;5016611;28;20033;-74
2023/02/15 12:40:39;;;;;;;12.35;7.93;;;14.30;68.50;;;;;;5009804;28;20034;-71
2023/02/15 12:43:24;;;;;;;;;;;14.40;67.90;;;;;;5020819;28;20026;-72
2023/02/15 12:45:50;;;;;;;15.18;6.97;;;14.40;69.70;;;;;;5026936;28;19917;-70
2023/02/15 12:48:18;;;;;;;9.77;6.82;;;14.40;66.80;;;;;;5028391;28;20029;-71
2023/02/15 12:51:07;;;;;;;9.90;6.05;;;14.50;64.50;;;;;;5032746;28;20052;-70
2023/02/15 12:53:35;;;;;;;16.15;5.95;;;14.40;64.50;;;;;;5039768;28;20137;-69
2023/02/15 12:56:05;;;;;;;10.63;5.57;;;14.40;64.90;;;;;;5042935;28;20025;-72
2023/02/15 12:58:33;;;;;;;10.15;6.43;;;14.50;66.30;;;;;;5036292;28;20112;-73
2023/02/15 13:01:17;;;;;;;18.83;5.75;;;14.70;65.90;;;;;;5038363;28;20451;-70
2023/02/15 13:03:59;;;;;;;15.98;5.35;;;14.90;65.90;;;;;;5039717;28;20310;-73
2023/02/15 13:06:26;;;;;;;9.68;6.18;;;15.00;63.20;;;;;;5036968;28;20025;-69
2023/02/15 13:08:55;;;;;;;11.27;6.25;;;15.00;62.70;;;;;;5036837;28;20052;-71
2023/02/15 13:11:37;;;;;;;68.40;10.18;;;15.10;61.50;;;;;;5026156;28;20711;-69
2023/02/15 13:14:19;;;;;;;25.48;6.47;;;15.00;60.60;;;;;;5020407;28;20022;-70
2023/02/15 13:16:48;;;;;;;24.67;6.25;;;15.00;61.60;;;;;;5017645;28;20026;-70
2023/02/15 13:19:20;;;;;;;11.15;4.95;;;15.00;63.60;;;;;;5025808;28;20037;-70
2023/02/15 13:21:51;;;;;;;15.60;5.35;;;14.90;60.80;;;;;;5046438;28;20025;-72
2023/02/15 13:24:26;;;;;;;82.78;11.25;;;14.80;60.90;;;;;;5045157;28;20077;-68